GMMNGOOY

Guest
Details From GMMN - Casablanca Mohammed V Intl
To GOOY - Dakar Leopold Sedar Senghor Intl
Flight Number -
Tags generated
Created
Modified
Stats Distance 1,257 nm / 2,328 km
Max Altitude 34,000 ft / 10,363 m
Waypoints 13
Social Downloads 0
Likes 0
Share VATSIM

Download

Looking for another format? Having issues loading an existing format? Contact us
Advertisement - Login to hide

Notes

Basic altitude profile: - Ascent Rate: 2500ft/min - Ascent Speed: 250kts - Cruise Altitude: 36000ft - Cruise Speed: 420kts - Descent Rate: 1500ft/min - Descent Speed: 250kts Options: - Use NATs: yes - Use PACOTS: yes - Use low airways: yes - Use high airways: yes

Route

GMMN VESEN UR975 SLO R975F YF GOOY

ID Type Via Altitude Latitude Longitude Leg Dist Tot Dist Heading (true) Name
O GMMN APT - 0 ft / 0 m 33.36747˚ -7.58996˚ - 0 nm - Casablanca Mohammed V Intl
VESEN FIX - 34,000 ft / 10,363 m 31.81417˚ -8.63167˚ 107 nm 107 nm 210° / 209° -
ADM VOR UR975 (AWY-HI) 28,500 ft / 8,687 m 30.32194˚ -9.38333˚ 97 nm 204 nm 204° / 203° AGADIR VOR-DME
MOROX FIX UR975 (AWY-HI) 34,000 ft / 10,363 m 29.00000˚ -10.00889˚ 85 nm 290 nm 203° / 202° -
ECHED FIX UR975 (AWY-HI) 34,000 ft / 10,363 m 27.66667˚ -10.51667˚ 84 nm 375 nm 199° / 198° -
BIMOG FIX UR975 (AWY-HI) 34,000 ft / 10,363 m 25.21667˚ -11.55000˚ 157 nm 532 nm 201° / 200° -
ZRT VOR UR975 (AWY-HI) 34,000 ft / 10,363 m 22.75853˚ -12.46158˚ 155 nm 688 nm 199° / 199° ZOUERAT VOR
AR NDB UR975 (AWY-HI) 34,000 ft / 10,363 m 20.50231˚ -13.05908˚ 139 nm 827 nm 194° / 194° ATAR NDB
IDINI FIX UR975 (AWY-HI) 34,000 ft / 10,363 m 17.64306˚ -15.26583˚ 212 nm 1040 nm 216° / 216° -
ULNOT FIX UR975 (AWY-HI) 34,000 ft / 10,363 m 17.10722˚ -15.66917˚ 39 nm 1079 nm 216° / 216° -
SLO NDB UR975 (AWY-HI) 24,500 ft / 7,468 m 16.04908˚ -16.45714˚ 78 nm 1157 nm 216° / 215° SAINT LOUIS NDB
YF VOR R975F (AWY-LO) 5,500 ft / 1,676 m 14.74483˚ -17.47478˚ 98 nm 1255 nm 217° / 217° DAKAR VOR-DME
O GOOY APT - 0 ft / 0 m 14.73971˚ -17.49023˚ 0 nm 1256 nm 251° / 251° Dakar Leopold Sedar Senghor Intl

Altitude Profile

Advertisement - Login to hide

Weather


0- 5 10 15 20 25 30 35+ Temperature / ° C

Clouds and Precipitation
Forecast for 2017-12-14 18:00 UTC. Updated 31 minutes ago

Ground ~20,000 ft ~40,000 ft Winds

GMMN

Details ICAO GMMN (CMN)
Name Casablanca Mohammed V Intl
Region Morocco
Timezone Africa/Casablanca (UTC+0.0)
Stats Elevation 656 ft / 200 m (AMSL)
Location 33.367466° -7.589964°
Runways 2
Magnetic Variation 1.817° W

METAR

GMMN 141330Z 04006KT 330V100 CAVOK 17/07 Q1026 NOSIG

Decode

TAF

TAF TAF GMMN 141100Z 1412/1518 04012KT CAVOK BECMG 1420/1422 34004KT PROB30 TEMPO 1500/1506 3000 BR SCT010

Decode

Departure Runways

ID Width Length Bearing (true) Bearing (mag) Surface Threshold Offset Overrun Length
17L 148 ft / 45 m 12,224 ft / 3,726 m 164.03° 165.85° Asphalt 0 ft / 0 m 295 ft / 90 m
17R 148 ft / 45 m 12,196 ft / 3,717 m 164.03° 165.85° Asphalt 0 ft / 0 m 197 ft / 60 m
35L 148 ft / 45 m 12,196 ft / 3,717 m 344.04° 345.86° Asphalt 0 ft / 0 m 180 ft / 55 m
35R 148 ft / 45 m 12,224 ft / 3,726 m 344.04° 345.86° Asphalt 0 ft / 0 m 995 ft / 303 m

GOOY

Details ICAO GOOY (DKR)
Name Dakar Leopold Sedar Senghor Intl
Region Senegal
Timezone Africa/Dakar (UTC+0.0)
Stats Elevation 85 ft / 26 m (AMSL)
Location 14.739711° -17.490226°
Runways 2
Magnetic Variation 7.347° W

METAR

GOOY 141300Z 04012KT CAVOK 24/08 Q1016

Decode

TAF

TAF GOOY 141130Z 1412/1518 04015KT 8000 NSC= TAF GBYD 141130Z 1412/1518 04008KT CAVOK

Decode

Destination Runways

ID Width Length Bearing (true) Bearing (mag) Surface Threshold Offset Overrun Length
03 98 ft / 30 m 4,921 ft / 1,500 m 22.31° 29.66° Asphalt 0 ft / 0 m 98 ft / 30 m
18 148 ft / 45 m 11,511 ft / 3,509 m 172.57° 179.92° Asphalt 525 ft / 160 m 197 ft / 60 m
21 98 ft / 30 m 4,921 ft / 1,500 m 202.31° 209.66° Asphalt 0 ft / 0 m 1,590 ft / 485 m
36 148 ft / 45 m 11,511 ft / 3,509 m 352.57° 359.92° Asphalt 0 ft / 0 m 197 ft / 60 m

Approach Navaids

Runway Type Ident Frequency Range Bearing (true) Bearing (mag) Slope Elevation
36 Localiser YF 110.30 MHz 18 nm / 33 km 352.33° 359.67° - 65 ft / 20 m (AMSL)
36 Glidescope YF 110.30 MHz 10 nm / 19 km 352.57° 359.92° 3.01° 73 ft / 22 m (AMSL)
36 DME YF 110.30 MHz 18 nm / 33 km - - - 73 ft / 22 m (AMSL)

Popular Alternatives